Time;durP1;ratioP1;P1;durP2;ratioP2;P2;SDS_P1;SDS_P2;PMS_P1;PMS_P2;Temp;Humidity;BMP_temperature;BMP_pressure;BME280_temperature;BME280_humidity;BME280_pressure;Samples;Min_cycle;Max_cycle;Signal;HPM_P1;HPM_P2
2022/11/04 00:01:52;;;;;;;28.60;18.02;;;;;;;10.42;71.16;99515.77;1964126;90;28233;-64
2022/11/04 00:04:54;;;;;;;32.67;18.40;;;;;;;10.40;71.17;99515.88;1954393;89;29086;-64
2022/11/04 00:14:35;;;;;;;39.05;22.13;;;;;;;10.32;71.22;99509.62;1967282;90;29942;-62
2022/11/04 00:17:36;;;;;;;42.03;21.73;;;;;;;10.29;71.22;99507.59;1950431;91;28168;-64
2022/11/04 00:30:41;;;;;;;33.33;20.48;;;;;;;10.15;71.47;99498.59;1888540;94;29713;-63
2022/11/04 00:33:42;;;;;;;34.83;20.23;;;;;;;10.11;71.50;99504.23;1888498;94;27668;-65
2022/11/04 00:36:43;;;;;;;35.85;19.17;;;;;;;10.08;71.59;99502.61;1887490;94;28632;-66
2022/11/04 00:39:46;;;;;;;33.70;17.35;;;;;;;10.06;71.63;99502.30;1876703;94;31483;-64
2022/11/04 00:42:47;;;;;;;32.93;18.82;;;;;;;10.03;71.74;99494.84;1877280;94;33878;-64
2022/11/04 00:45:48;;;;;;;32.70;17.90;;;;;;;10.01;71.80;99486.53;1877458;94;29726;-63
2022/11/04 00:48:49;;;;;;;33.05;17.60;;;;;;;9.96;71.93;99480.58;1877837;94;27783;-64
2022/11/04 00:51:50;;;;;;;28.23;17.67;;;;;;;9.95;72.11;99477.52;1877937;94;29415;-62
2022/11/04 00:54:52;;;;;;;37.15;18.87;;;;;;;9.93;72.03;99462.91;1878493;94;31454;-63
2022/11/04 00:57:55;;;;;;;33.45;19.37;;;;;;;9.92;72.18;99453.16;1878506;94;34105;-63
2022/11/04 01:00:56;;;;;;;34.15;17.87;;;;;;;9.89;72.30;99446.66;1904430;90;30136;-62
2022/11/04 01:03:58;;;;;;;35.40;20.00;;;;;;;9.88;72.15;99444.47;1967865;90;27706;-63
2022/11/04 01:07:00;;;;;;;37.83;20.12;;;;;;;9.87;72.30;99440.53;1990632;89;29078;-63
2022/11/04 01:10:01;;;;;;;33.38;21.33;;;;;;;9.84;72.39;99430.05;1954542;90;32220;-63
2022/11/04 01:13:02;;;;;;;36.33;22.20;;;;;;;9.82;72.52;99424.77;1989859;89;33341;-64
2022/11/04 01:16:08;;;;;;;37.28;22.60;;;;;;;9.81;72.46;99423.53;2000729;89;30191;-63
2022/11/04 01:19:11;;;;;;;40.83;21.50;;;;;;;9.80;72.49;99429.84;2001041;89;27675;-63
2022/11/04 01:22:12;;;;;;;33.05;19.20;;;;;;;9.78;72.58;99420.55;2000946;89;29089;-63
2022/11/04 01:25:14;;;;;;;29.92;18.87;;;;;;;9.77;72.72;99413.97;2000619;89;31102;-62
2022/11/04 01:28:15;;;;;;;29.92;19.07;;;;;;;9.77;72.85;99405.95;2001049;89;34111;-62
2022/11/04 01:31:20;;;;;;;32.23;17.32;;;;;;;9.75;72.83;99404.72;2001068;88;30456;-63
2022/11/04 01:34:21;;;;;;;28.73;16.95;;;;;;;9.75;72.98;99402.04;2001274;88;27750;-63
2022/11/04 01:37:22;;;;;;;29.67;18.07;;;;;;;9.73;73.08;99410.14;2001007;88;29133;-63
2022/11/04 01:40:24;;;;;;;30.35;17.73;;;;;;;9.73;73.32;99399.93;2004281;88;31515;-63
2022/11/04 01:43:55;;;;;;;30.10;17.37;;;;;;;9.71;73.32;99396.48;1990227;88;34352;-63
2022/11/04 01:46:57;;;;;;;28.80;16.45;;;;;;;9.71;73.42;99396.48;1972382;90;29534;-63
2022/11/04 01:50:15;;;;;;;27.87;16.12;;;;;;;9.70;73.47;99386.73;1959055;90;27701;-62
2022/11/04 01:53:21;;;;;;;32.38;17.27;;;;;;;9.68;73.54;99376.11;1940565;91;29906;-62
2022/11/04 01:56:24;;;;;;;26.82;17.00;;;;;;;9.68;73.64;99384.63;1958860;90;32278;-63
2022/11/04 01:59:29;;;;;;;28.83;17.50;;;;;;;9.66;73.64;99378.51;1940379;91;33352;-64
2022/11/04 02:02:31;;;;;;;29.87;17.17;;;;;;;9.64;73.68;99375.06;1959267;90;29339;-64
2022/11/04 02:05:32;;;;;;;28.55;16.40;;;;;;;9.62;73.80;99371.16;1940601;91;27686;-63
2022/11/04 02:08:34;;;;;;;28.25;16.12;;;;;;;9.61;73.83;99370.77;1958832;90;28719;-63
2022/11/04 02:14:57;;;;;;;27.27;15.13;;;;;;;9.57;73.99;99366.55;1941167;91;33154;-64
2022/11/04 02:18:36;;;;;;;28.15;16.20;;;;;;;9.56;73.96;99367.51;1940580;91;30102;-62
2022/11/04 02:22:07;;;;;;;28.50;15.43;;;;;;;9.53;74.24;99364.55;1940694;91;27637;-63
2022/11/04 02:25:29;;;;;;;25.57;16.17;;;;;;;9.50;74.32;99364.73;1959271;90;29341;-63
2022/11/04 02:28:36;;;;;;;26.37;15.65;;;;;;;9.51;74.45;99364.27;1940527;91;31033;-63
2022/11/04 02:32:06;;;;;;;25.80;16.27;;;;;;;9.50;74.59;99368.75;1940346;91;33388;-63
2022/11/04 02:35:16;;;;;;;23.40;15.48;;;;;;;9.51;74.61;99365.61;1940360;91;30476;-62
2022/11/04 02:39:03;;;;;;;25.05;15.55;;;;;;;9.52;74.74;99356.61;1940267;91;27647;-63
2022/11/04 02:42:10;;;;;;;25.00;15.18;;;;;;;9.53;74.75;99361.88;1890404;94;29128;-63
2022/11/04 02:45:21;;;;;;;23.22;15.93;;;;;;;9.52;74.94;99352.14;1919111;92;31056;-63
2022/11/04 02:48:39;;;;;;;25.05;16.35;;;;;;;9.51;74.86;99354.42;1888798;94;34052;-63
2022/11/04 02:51:46;;;;;;;22.15;14.73;;;;;;;9.50;74.86;99343.34;1919352;92;30456;-63
2022/11/04 02:55:11;;;;;;;25.10;15.98;;;;;;;9.48;75.01;99341.73;1888861;94;27764;-64
2022/11/04 02:58:17;;;;;;;25.50;14.78;;;;;;;9.47;74.94;99354.71;1919534;92;28540;-63
2022/11/04 03:01:20;;;;;;;25.12;15.53;;;;;;;9.43;75.14;99354.89;1888072;94;31070;-63
2022/11/04 03:04:27;;;;;;;27.15;15.98;;;;;;;9.40;75.14;99347.05;1919361;92;32722;-63
2022/11/04 03:07:32;;;;;;;28.15;15.70;;;;;;;9.37;75.11;99349.05;1888509;94;29361;-63
2022/11/04 03:10:43;;;;;;;25.43;15.32;;;;;;;9.36;75.04;99347.33;1919605;92;27738;-63
2022/11/04 03:14:02;;;;;;;28.27;16.00;;;;;;;9.35;75.10;99348.28;1935219;91;29776;-63
2022/11/04 03:17:11;;;;;;;29.95;16.48;;;;;;;9.35;75.15;99346.95;1983474;89;31047;-63
2022/11/04 03:20:18;;;;;;;23.10;15.20;;;;;;;9.35;75.27;99348.28;1968410;90;32435;-64
2022/11/04 03:23:20;;;;;;;29.42;16.57;;;;;;;9.35;75.41;99345.13;1950045;90;29344;-64
2022/11/04 03:26:33;;;;;;;22.62;15.45;;;;;;;9.37;75.41;99345.89;1968995;90;27693;-63
2022/11/04 03:29:38;;;;;;;22.52;15.00;;;;;;;9.42;75.54;99342.97;1950898;91;28707;-63
2022/11/04 03:33:17;;;;;;;27.30;14.85;;;;;;;9.47;75.53;99346.20;1968783;90;31098;-62
2022/11/04 03:36:21;;;;;;;28.07;15.08;;;;;;;9.50;75.58;99342.50;1950633;91;33481;-63
2022/11/04 03:39:23;;;;;;;23.25;14.70;;;;;;;9.55;75.61;99346.61;1967943;90;29921;-63
2022/11/04 03:42:26;;;;;;;26.45;15.85;;;;;;;9.61;75.59;99343.16;1963584;90;27743;-62
2022/11/04 03:45:28;;;;;;;32.98;16.80;;;;;;;9.65;75.67;99333.54;1971807;90;29502;-63
2022/11/04 03:48:31;;;;;;;26.95;15.68;;;;;;;9.70;75.65;99333.25;1958410;90;31153;-64
2022/11/04 03:51:32;;;;;;;24.87;16.02;;;;;;;9.73;75.74;99329.90;1958775;90;33364;-62
2022/11/04 03:54:37;;;;;;;28.07;15.83;;;;;;;9.76;75.66;99322.64;1939453;91;29938;-63
2022/11/04 03:57:58;;;;;;;23.95;15.25;;;;;;;9.80;75.67;99317.49;1959032;90;27712;-62
2022/11/04 04:01:40;;;;;;;24.45;14.98;;;;;;;9.83;75.67;99317.30;1958594;90;29952;-62
2022/11/04 04:04:50;;;;;;;22.62;15.18;;;;;;;9.87;75.73;99317.47;1939364;91;31858;-62
2022/11/04 04:08:17;;;;;;;30.77;17.65;;;;;;;9.90;75.67;99316.45;1965161;90;33343;-62
2022/11/04 04:11:52;;;;;;;24.72;15.60;;;;;;;9.93;75.69;99303.72;1971388;90;30519;-63
2022/11/04 04:15:14;;;;;;;24.82;16.23;;;;;;;9.95;75.64;99300.94;1955765;91;37330;-63
2022/11/04 04:18:21;;;;;;;31.77;16.85;;;;;;;9.96;75.76;99303.53;1987209;89;28452;-63
2022/11/04 04:21:40;;;;;;;29.80;16.60;;;;;;;9.99;75.73;99298.45;2003989;88;31200;-63
2022/11/04 04:28:05;;;;;;;27.13;15.90;;;;;;;10.03;75.73;99298.66;1987099;89;30010;-63
2022/11/04 04:31:07;;;;;;;25.45;14.87;;;;;;;10.05;75.79;99300.75;1987406;89;28285;-62
2022/11/04 04:34:09;;;;;;;25.88;16.20;;;;;;;10.06;76.02;99297.58;1987023;89;29870;-63
2022/11/04 04:37:22;;;;;;;26.90;17.10;;;;;;;10.07;75.95;99291.28;1987191;89;31452;-62
2022/11/04 04:47:08;;;;;;;32.58;17.25;;;;;;;10.08;76.12;99283.63;1959437;90;27692;-64
2022/11/04 04:50:13;;;;;;;32.08;18.90;;;;;;;10.08;76.17;99279.62;1959284;90;28688;-63
2022/11/04 04:53:15;;;;;;;31.30;18.25;;;;;;;10.07;76.31;99277.44;1959235;90;31877;-63
2022/11/04 04:56:16;;;;;;;30.95;18.62;;;;;;;10.07;76.38;99276.09;1959342;90;33002;-62
2022/11/04 04:59:18;;;;;;;30.82;16.85;;;;;;;10.06;76.37;99271.70;1959168;90;30189;-63
2022/11/04 05:02:20;;;;;;;31.35;17.90;;;;;;;10.07;76.49;99268.53;1959043;90;27672;-63
2022/11/04 05:05:21;;;;;;;32.93;18.67;;;;;;;10.06;76.45;99265.47;1959286;90;29074;-63
2022/11/04 05:08:22;;;;;;;31.07;17.70;;;;;;;10.07;76.49;99268.53;1959316;90;31493;-63
2022/11/04 05:11:23;;;;;;;32.23;18.85;;;;;;;10.06;76.48;99273.04;1959401;89;34152;-64
2022/11/04 05:14:24;;;;;;;29.67;19.60;;;;;;;10.07;76.47;99273.42;1990339;89;29740;-64
2022/11/04 05:17:26;;;;;;;32.58;18.77;;;;;;;10.06;76.47;99275.72;1990703;89;27623;-63
2022/11/04 05:20:29;;;;;;;31.55;20.37;;;;;;;10.07;76.53;99272.09;1990609;89;28954;-64
2022/11/04 05:23:30;;;;;;;32.30;18.15;;;;;;;10.08;76.48;99265.77;1976938;89;31876;-64
2022/11/04 05:26:32;;;;;;;34.92;18.75;;;;;;;10.09;76.48;99266.63;1959421;90;34110;-63
2022/11/04 05:29:33;;;;;;;32.13;19.10;;;;;;;10.08;76.60;99263.10;1978453;88;29178;-63
2022/11/04 05:32:34;;;;;;;34.53;18.95;;;;;;;10.10;76.63;99257.64;1959521;90;27684;-63
2022/11/04 05:35:36;;;;;;;34.20;18.95;;;;;;;10.10;76.65;99262.49;1959136;90;28658;-63
2022/11/04 05:38:38;;;;;;;36.85;20.52;;;;;;;10.10;76.55;99265.66;1958694;89;31592;-63
2022/11/04 05:41:39;;;;;;;31.65;19.87;;;;;;;10.08;76.54;99256.88;1948863;91;34238;-63
2022/11/04 05:44:40;;;;;;;38.00;20.50;;;;;;;10.05;76.53;99255.27;1948893;90;30672;-63
2022/11/04 05:47:42;;;;;;;44.85;23.32;;;;;;;10.00;76.52;99248.00;1949679;90;28204;-63
2022/11/04 05:50:43;;;;;;;39.73;23.65;;;;;;;9.95;76.52;99242.95;1949577;91;29641;-63
2022/11/04 05:53:45;;;;;;;36.30;21.65;;;;;;;9.90;76.63;99234.84;1963938;89;31383;-62
2022/11/04 05:56:47;;;;;;;39.80;23.15;;;;;;;9.85;76.74;99239.13;1980107;89;33338;-63
2022/11/04 05:59:49;;;;;;;41.55;23.00;;;;;;;9.80;76.75;99239.92;1980153;89;30171;-63
2022/11/04 06:02:50;;;;;;;42.58;24.12;;;;;;;9.76;76.80;99236.59;2000642;88;27743;-63
2022/11/04 06:05:54;;;;;;;45.35;25.35;;;;;;;9.73;76.92;99242.98;1980074;89;29079;-63
2022/11/04 06:08:57;;;;;;;45.57;25.13;;;;;;;9.71;77.03;99241.37;1980459;89;31060;-63
2022/11/04 06:11:58;;;;;;;43.52;23.52;;;;;;;9.68;77.02;99245.08;1980048;89;32963;-63
2022/11/04 06:15:00;;;;;;;36.80;23.07;;;;;;;9.66;77.11;99245.67;1979953;89;30146;-64
2022/11/04 06:18:02;;;;;;;40.75;23.70;;;;;;;9.65;77.29;99249.30;1980083;89;27754;-63
2022/11/04 06:21:20;;;;;;;41.80;24.47;;;;;;;9.65;77.22;99251.10;1979906;89;29568;-63
2022/11/04 06:24:21;;;;;;;37.65;22.25;;;;;;;9.65;77.32;99256.45;1949937;89;32294;-63
2022/11/04 06:27:23;;;;;;;40.45;23.67;;;;;;;9.68;77.41;99261.12;1949167;91;34184;-63
2022/11/04 06:30:24;;;;;;;36.68;24.30;;;;;;;9.73;77.50;99260.85;1949431;91;30339;-63
2022/11/04 06:33:30;;;;;;;38.40;24.98;;;;;;;9.78;77.62;99265.91;1948953;90;27744;-63
2022/11/04 06:36:31;;;;;;;43.73;26.45;;;;;;;9.82;77.58;99262.94;1949034;91;28708;-63
2022/11/04 06:39:32;;;;;;;37.28;24.87;;;;;;;9.87;77.67;99268.86;1948953;90;31463;-63
2022/11/04 06:42:34;;;;;;;44.60;26.27;;;;;;;9.94;77.75;99272.47;1948777;91;34285;-62
2022/11/04 06:45:35;;;;;;;38.20;25.12;;;;;;;10.00;77.80;99270.28;1948834;91;30552;-62
2022/11/04 06:48:36;;;;;;;43.15;26.75;;;;;;;10.09;77.94;99259.47;1949293;91;27614;-62
2022/11/04 06:51:38;;;;;;;40.12;25.72;;;;;;;10.18;77.99;99248.16;1949229;91;29186;-62
2022/11/04 06:54:39;;;;;;;43.45;25.48;;;;;;;10.28;77.94;99255.11;1976247;89;31057;-63
2022/11/04 06:57:41;;;;;;;47.15;26.37;;;;;;;10.38;77.85;99250.04;1980091;89;33345;-62
2022/11/04 07:00:42;;;;;;;38.10;24.10;;;;;;;10.46;77.81;99254.39;1979852;89;30024;-63
2022/11/04 07:03:50;;;;;;;40.40;23.65;;;;;;;10.56;77.77;99257.81;1980114;89;28339;-62
2022/11/04 07:06:51;;;;;;;42.98;24.85;;;;;;;10.67;77.72;99262.47;1980038;89;28810;-63
2022/11/04 07:09:53;;;;;;;39.23;24.12;;;;;;;10.78;77.66;99262.59;1980142;89;31865;-62
2022/11/04 07:12:54;;;;;;;40.30;23.52;;;;;;;10.91;77.64;99266.16;1979824;89;32892;-63
2022/11/04 07:15:56;;;;;;;35.25;23.35;;;;;;;11.06;77.49;99267.41;1979891;89;29889;-62
2022/11/04 07:19:01;;;;;;;36.10;22.90;;;;;;;11.21;77.46;99260.98;1979823;89;27668;-63
2022/11/04 07:22:02;;;;;;;37.35;23.73;;;;;;;11.36;77.18;99265.78;1979864;89;29081;-63
2022/11/04 07:25:06;;;;;;;37.70;22.90;;;;;;;11.46;77.00;99257.95;1948891;91;31509;-63
2022/11/04 07:28:07;;;;;;;34.63;23.18;;;;;;;11.58;76.88;99262.06;1949453;91;33318;-63
2022/11/04 07:31:11;;;;;;;33.75;23.18;;;;;;;11.66;76.56;99267.27;1949604;91;29672;-63
2022/11/04 07:34:12;;;;;;;42.85;27.70;;;;;;;11.75;76.44;99275.14;1949337;90;27685;-63
2022/11/04 07:37:13;;;;;;;40.95;26.23;;;;;;;11.82;76.31;99275.56;1949172;91;29088;-63
2022/11/04 07:40:15;;;;;;;37.93;25.55;;;;;;;11.90;76.28;99269.64;1948882;89;31430;-63
2022/11/04 07:43:16;;;;;;;41.68;26.27;;;;;;;11.98;76.27;99269.50;1948713;91;33038;-63
2022/11/04 07:46:19;;;;;;;38.45;22.62;;;;;;;12.06;76.15;99278.34;1949132;91;29714;-63
2022/11/04 07:49:21;;;;;;;32.50;21.25;;;;;;;12.16;76.11;99274.50;1949141;91;27768;-63
2022/11/04 07:52:23;;;;;;;37.60;21.80;;;;;;;12.25;76.11;99270.28;1955630;89;28478;-64
2022/11/04 07:55:24;;;;;;;36.17;19.15;;;;;;;12.34;76.00;99278.16;1979723;89;31473;-64
2022/11/04 07:58:26;;;;;;;28.05;18.12;;;;;;;12.41;75.76;99272.72;1979671;89;33008;-64
2022/11/04 08:01:27;;;;;;;27.22;18.35;;;;;;;12.48;75.56;99276.64;1978850;89;30000;-63
2022/11/04 08:04:28;;;;;;;32.03;19.70;;;;;;;12.55;75.56;99283.29;1979895;89;27712;-63
2022/11/04 08:07:30;;;;;;;25.95;18.52;;;;;;;12.63;75.53;99275.13;1980100;89;29085;-63
2022/11/04 08:10:31;;;;;;;28.75;18.75;;;;;;;12.72;75.42;99271.27;1979946;89;30906;-64
2022/11/04 08:13:35;;;;;;;29.65;19.77;;;;;;;12.84;75.45;99278.02;1979744;89;34143;-64
2022/11/04 08:16:37;;;;;;;27.60;18.98;;;;;;;12.92;75.30;99274.28;1979991;89;29339;-64
2022/11/04 08:19:38;;;;;;;30.32;19.90;;;;;;;13.03;75.14;99274.80;1980109;89;27692;-63
2022/11/04 08:22:40;;;;;;;32.25;21.48;;;;;;;13.11;75.02;99273.71;1971439;89;29106;-63
2022/11/04 08:25:41;;;;;;;31.30;22.10;;;;;;;13.17;74.64;99271.03;1949018;90;31862;-63
2022/11/04 08:28:43;;;;;;;27.02;20.88;;;;;;;13.23;74.70;99270.57;1949012;91;34181;-63
2022/11/04 08:31:45;;;;;;;31.80;19.73;;;;;;;13.34;74.10;99259.83;1949045;91;29340;-63
2022/11/04 08:34:47;;;;;;;28.85;20.50;;;;;;;13.34;74.10;99259.83;1949027;90;27658;-64
2022/11/04 08:37:49;;;;;;;32.30;21.40;;;;;;;13.42;74.28;99258.41;1949219;91;28678;-64
2022/11/04 08:40:50;;;;;;;27.67;19.95;;;;;;;13.45;74.20;99253.64;1948916;89;31946;-64
2022/11/04 08:43:51;;;;;;;31.48;20.37;;;;;;;13.50;74.17;99252.80;1948839;91;34211;-64
2022/11/04 08:46:53;;;;;;;29.00;18.07;;;;;;;13.55;74.00;99252.94;1949654;91;29710;-63
2022/11/04 08:49:55;;;;;;;25.60;19.02;;;;;;;13.55;73.70;99242.17;1949563;91;27657;-63
2022/11/04 08:52:57;;;;;;;30.02;18.25;;;;;;;13.58;73.72;99239.20;1963770;89;29949;-64
2022/11/04 08:55:59;;;;;;;23.50;16.50;;;;;;;13.62;73.59;99242.03;1979955;89;31443;-64
2022/11/04 08:59:03;;;;;;;23.42;15.60;;;;;;;13.72;73.67;99243.50;1980182;89;33342;-64
2022/11/04 09:02:05;;;;;;;23.92;16.85;;;;;;;13.80;73.42;99232.99;1980360;89;29354;-64
2022/11/04 09:05:08;;;;;;;22.95;16.27;;;;;;;13.93;73.23;99234.18;1979911;89;27720;-64
2022/11/04 09:08:11;;;;;;;26.52;16.12;;;;;;;14.08;73.17;99224.85;1980073;89;29094;-63
2022/11/04 09:11:15;;;;;;;25.70;15.13;;;;;;;14.10;73.29;99208.08;1980077;89;31432;-64
2022/11/04 09:14:16;;;;;;;21.00;16.42;;;;;;;14.35;72.81;99221.36;1980170;89;33909;-64
2022/11/04 09:17:18;;;;;;;22.65;16.05;;;;;;;14.51;72.49;99219.61;1979788;89;30540;-64
2022/11/04 09:20:22;;;;;;;24.05;14.98;;;;;;;14.64;72.53;99212.20;1980406;89;27632;-63
2022/11/04 09:23:24;;;;;;;23.40;15.95;;;;;;;14.76;72.17;99218.91;1978261;89;30055;-64
2022/11/04 09:26:25;;;;;;;27.13;16.90;;;;;;;14.87;72.18;99210.78;1979894;89;30993;-64
2022/11/04 09:29:29;;;;;;;24.87;17.37;;;;;;;14.99;72.11;99207.02;1980051;89;33424;-63
2022/11/04 09:32:30;;;;;;;26.60;17.67;;;;;;;15.11;71.93;99207.81;1980212;89;30267;-64
2022/11/04 09:35:32;;;;;;;26.27;17.07;;;;;;;15.25;71.88;99205.25;1980096;89;27716;-65
2022/11/04 09:38:33;;;;;;;24.70;17.40;;;;;;;15.40;71.75;99203.06;1980095;89;27839;-63
2022/11/04 09:42:09;;;;;;;25.40;16.62;;;;;;;15.41;71.32;99193.98;1985289;89;32271;-63
2022/11/04 09:45:17;;;;;;;;;;;;;;;15.69;71.23;99220.39;1992988;89;34122;-64
2022/11/04 09:48:33;;;;;;;32.28;18.23;;;;;;;15.85;70.80;99211.77;1990431;89;29704;-64
2022/11/04 09:51:36;;;;;;;25.05;17.77;;;;;;;16.03;70.87;99197.15;1986434;88;27684;-64
2022/11/04 09:55:07;;;;;;;32.05;19.55;;;;;;;16.23;70.50;99204.27;1959500;89;28699;-64
2022/11/04 09:58:11;;;;;;;30.43;19.95;;;;;;;16.42;70.42;99205.30;1892805;94;31434;-65
2022/11/04 10:01:45;;;;;;;29.07;19.57;;;;;;;16.60;70.12;99206.81;1915420;91;33949;-65
2022/11/04 10:04:55;;;;;;;27.85;18.62;;;;;;;16.74;69.59;99199.27;1953370;91;30224;-64
2022/11/04 10:08:36;;;;;;;29.92;19.20;;;;;;;16.85;69.45;99199.97;1953283;91;27811;-65
2022/11/04 10:12:24;;;;;;;26.52;16.82;;;;;;;16.94;68.66;99199.61;1953088;91;30139;-66
2022/11/04 10:15:49;;;;;;;31.55;18.62;;;;;;;16.99;68.43;99191.08;1953187;91;31478;-65
2022/11/04 10:19:23;;;;;;;29.63;18.40;;;;;;;16.98;68.23;99190.21;1953649;91;34122;-66
2022/11/04 10:22:35;;;;;;;31.10;18.73;;;;;;;16.95;67.60;99175.64;1948227;91;29709;-66
2022/11/04 10:25:50;;;;;;;26.80;18.67;;;;;;;16.90;67.44;99185.14;1942241;90;27847;-65
2022/11/04 10:28:56;;;;;;;25.35;17.65;;;;;;;16.81;67.16;99184.16;1946645;90;29064;-65
2022/11/04 10:32:00;;;;;;;30.88;19.82;;;;;;;16.71;67.04;99180.97;1946612;91;31069;-65
2022/11/04 10:35:21;;;;;;;25.88;18.25;;;;;;;16.65;67.02;99181.53;1964143;89;33765;-65
2022/11/04 10:38:49;;;;;;;26.40;17.80;;;;;;;16.60;66.66;99178.91;1945018;91;30568;-65
2022/11/04 10:41:51;;;;;;;24.50;16.80;;;;;;;16.49;66.63;99175.36;1925068;92;27997;-65
2022/11/04 10:44:53;;;;;;;21.62;16.05;;;;;;;16.43;66.69;99188.08;1956989;91;28726;-65
2022/11/04 10:48:14;;;;;;;22.67;16.25;;;;;;;16.38;66.74;99197.14;1972494;90;32269;-66
2022/11/04 10:51:22;;;;;;;24.10;17.67;;;;;;;16.38;66.62;99197.98;1955324;90;33416;-66
2022/11/04 10:54:26;;;;;;;25.57;17.48;;;;;;;16.37;66.57;99205.72;1907674;93;30404;-66
2022/11/04 10:57:27;;;;;;;27.37;17.67;;;;;;;16.34;66.22;99206.00;1939134;91;27720;-66
2022/11/04 11:00:35;;;;;;;27.02;17.92;;;;;;;16.31;66.43;99201.38;1907707;93;29278;-65
2022/11/04 11:03:36;;;;;;;30.43;17.25;;;;;;;16.26;66.25;99189.65;1939022;91;31451;-65
2022/11/04 11:06:37;;;;;;;26.70;17.90;;;;;;;16.20;66.32;99187.49;1932738;91;33618;-65
2022/11/04 11:09:51;;;;;;;26.42;17.12;;;;;;;16.15;66.25;99181.65;1972060;90;29797;-65
2022/11/04 11:13:00;;;;;;;28.12;17.62;;;;;;;16.14;66.37;99179.94;1958857;90;27707;-65
2022/11/04 11:16:10;;;;;;;25.55;17.42;;;;;;;16.10;66.30;99182.08;1958961;90;28483;-66
2022/11/04 11:19:17;;;;;;;24.35;17.60;;;;;;;16.07;66.36;99183.22;1917587;91;32263;-65
2022/11/04 11:22:32;;;;;;;26.97;17.37;;;;;;;16.05;66.31;99182.50;1956511;90;33734;-65
2022/11/04 11:25:35;;;;;;;24.70;17.27;;;;;;;15.99;66.08;99182.20;1987239;89;29473;-66
2022/11/04 11:28:39;;;;;;;29.48;18.75;;;;;;;16.03;66.30;99175.53;1987315;89;27731;-65
2022/11/04 11:31:40;;;;;;;37.75;21.35;;;;;;;16.14;66.57;99163.24;1987482;89;29083;-65
2022/11/04 11:34:46;;;;;;;24.85;16.87;;;;;;;16.29;66.45;99167.75;1987094;89;31446;-66
2022/11/04 11:37:46;;;;;;;28.70;17.50;;;;;;;16.40;66.10;99158.62;1987024;88;33799;-66
2022/11/04 11:40:51;;;;;;;26.62;18.20;;;;;;;16.54;66.16;99151.95;1987189;89;29779;-65
2022/11/04 11:43:54;;;;;;;27.70;18.55;;;;;;;16.62;65.67;99161.56;1990307;89;27686;-65
2022/11/04 11:47:02;;;;;;;27.55;19.62;;;;;;;16.67;65.54;99155.72;1990511;89;29091;-65
2022/11/04 11:50:19;;;;;;;31.35;19.87;;;;;;;16.76;65.40;99167.52;1990388;89;31207;-64
2022/11/04 11:53:23;;;;;;;22.93;16.42;;;;;;;16.81;65.45;99170.63;1998670;88;33040;-66
2022/11/04 11:56:31;;;;;;;31.50;18.17;;;;;;;16.80;64.97;99167.56;2007921;88;30591;-67
2022/11/04 11:59:50;;;;;;;28.47;17.65;;;;;;;16.77;64.83;99174.64;1986137;89;27684;-65
2022/11/04 12:02:59;;;;;;;21.15;15.70;;;;;;;16.66;64.48;99172.94;1940352;91;28685;-67
2022/11/04 12:06:32;;;;;;;23.62;16.93;;;;;;;16.57;64.59;99170.59;1970729;89;31210;-65
2022/11/04 12:10:17;;;;;;;27.42;18.37;;;;;;;16.51;64.69;99165.74;1966232;89;34219;-65
2022/11/04 12:13:31;;;;;;;25.12;16.75;;;;;;;16.47;64.67;99154.86;1929956;90;30533;-67
2022/11/04 12:16:53;;;;;;;25.35;17.45;;;;;;;16.44;64.43;99151.95;1942070;91;27678;-65
2022/11/04 12:20:19;;;;;;;27.80;17.92;;;;;;;16.41;64.40;99150.88;2001652;88;29924;-66
2022/11/04 12:23:46;;;;;;;27.67;18.50;;;;;;;16.40;64.60;99162.68;1984986;88;31955;-65
2022/11/04 12:27:12;;;;;;;33.30;19.85;;;;;;;16.35;64.79;99166.33;2002428;88;34288;-65
2022/11/04 12:30:18;;;;;;;28.98;19.62;;;;;;;16.31;64.69;99175.70;2011529;88;29564;-63
2022/11/04 12:33:34;;;;;;;29.85;19.85;;;;;;;16.21;64.54;99177.91;1997760;88;27605;-64
2022/11/04 12:37:31;;;;;;;25.95;18.48;;;;;;;16.11;64.68;99182.44;2013511;88;29858;-64
2022/11/04 12:40:54;;;;;;;28.07;18.95;;;;;;;16.04;64.75;99182.14;2001241;88;31456;-64
2022/11/04 12:44:45;;;;;;;27.77;18.42;;;;;;;15.91;64.71;99184.25;1989946;89;34324;-65
2022/11/04 12:47:47;;;;;;;30.15;19.52;;;;;;;15.75;64.79;99174.80;1961487;89;30172;-66
2022/11/04 12:51:12;;;;;;;29.02;19.32;;;;;;;15.62;64.90;99175.03;1959320;90;27719;-65
2022/11/04 12:54:49;;;;;;;31.75;21.93;;;;;;;15.51;65.02;99175.14;1959306;90;29843;-65
2022/11/04 12:58:15;;;;;;;30.35;19.30;;;;;;;15.41;65.16;99170.17;1958355;90;31409;-65
2022/11/04 13:01:22;;;;;;;34.78;21.42;;;;;;;15.30;65.28;99167.09;1959264;89;34063;-65
2022/11/04 13:04:34;;;;;;;35.55;20.23;;;;;;;15.21;65.38;99155.75;1959123;90;29881;-65
2022/11/04 13:08:10;;;;;;;32.05;20.85;;;;;;;15.13;65.57;99159.11;1959420;90;27696;-66
2022/11/04 13:11:23;;;;;;;;;;;;;;;15.07;65.66;99163.20;1961307;90;30009;-65
2022/11/04 13:14:28;;;;;;;37.42;23.35;;;;;;;14.99;65.84;99157.13;1959269;90;31416;-65
2022/11/04 13:17:37;;;;;;;37.00;23.70;;;;;;;14.93;66.02;99153.61;1984438;89;33828;-65
2022/11/04 13:20:54;;;;;;;36.08;23.00;;;;;;;14.91;66.13;99167.70;1990193;89;30868;-65
2022/11/04 13:24:03;;;;;;;35.45;22.27;;;;;;;14.85;66.14;99165.05;1972583;89;27644;-66
2022/11/04 13:27:21;;;;;;;34.13;23.32;;;;;;;14.82;66.28;99171.21;1961233;89;28665;-65
2022/11/04 13:30:41;;;;;;;34.60;22.60;;;;;;;14.66;66.36;99163.53;1959173;89;31534;-65
2022/11/04 13:34:20;;;;;;;33.58;21.65;;;;;;;14.73;66.40;99180.94;1894313;93;34165;-65
2022/11/04 13:37:32;;;;;;;34.10;22.73;;;;;;;14.69;66.48;99188.44;1892604;93;31243;-65
2022/11/04 13:40:48;;;;;;;33.25;22.55;;;;;;;14.62;66.75;99178.28;1887142;94;27874;-64
2022/11/04 13:44:00;;;;;;;39.83;22.22;;;;;;;14.59;66.75;99177.55;1898069;92;28685;-64
2022/11/04 13:47:07;;;;;;;35.38;21.60;;;;;;;14.53;66.82;99178.05;1887521;94;31045;-66
2022/11/04 13:50:29;;;;;;;28.85;21.55;;;;;;;14.47;66.75;99166.94;1887575;94;34182;-66
2022/11/04 13:53:45;;;;;;;35.33;23.18;;;;;;;14.46;67.06;99180.92;1890257;92;29322;-66
2022/11/04 13:56:46;;;;;;;30.72;22.15;;;;;;;14.36;67.43;99168.71;1878320;94;27781;-64
2022/11/04 14:00:13;;;;;;;31.33;21.73;;;;;;;14.36;67.43;99168.71;1902072;93;29867;-66
2022/11/04 14:03:29;;;;;;;31.73;21.55;;;;;;;14.28;67.41;99178.78;1900780;92;32131;-64
2022/11/04 14:06:59;;;;;;;28.80;19.62;;;;;;;14.28;67.41;99178.78;1899810;93;32968;-64
2022/11/04 14:10:02;;;;;;;32.98;22.75;;;;;;;14.26;67.61;99167.28;1904343;92;29729;-64
2022/11/04 14:13:41;;;;;;;33.45;21.57;;;;;;;14.23;67.70;99163.99;1917412;92;27681;-65
2022/11/04 14:16:43;;;;;;;33.30;20.55;;;;;;;14.22;67.79;99168.51;1916441;92;29786;-65
2022/11/04 14:19:57;;;;;;;35.08;21.62;;;;;;;14.20;67.98;99173.67;1916530;92;31128;-65
2022/11/04 14:23:02;;;;;;;31.07;21.68;;;;;;;14.18;68.03;99177.81;1916591;92;33667;-65
2022/11/04 14:26:11;;;;;;;39.05;25.12;;;;;;;14.15;68.15;99181.27;1916271;92;30122;-66
2022/11/04 14:29:24;;;;;;;35.92;23.87;;;;;;;14.12;68.39;99177.84;1916531;92;27766;-65
2022/11/04 14:32:31;;;;;;;39.35;24.37;;;;;;;14.10;68.43;99177.11;1932201;89;29620;-66
2022/11/04 14:35:34;;;;;;;31.95;22.67;;;;;;;14.08;68.47;99180.92;2004079;88;31899;-66
2022/11/04 14:38:37;;;;;;;31.90;21.75;;;;;;;14.05;68.59;99186.55;2000477;89;34060;-65
2022/11/04 14:42:00;;;;;;;31.05;22.25;;;;;;;14.03;68.79;99189.38;1998118;88;28882;-65
2022/11/04 14:45:02;;;;;;;33.50;21.40;;;;;;;14.02;68.75;99186.80;1958629;90;27797;-65
2022/11/04 14:48:18;;;;;;;38.63;23.47;;;;;;;13.98;68.84;99183.52;1958639;90;29116;-65
2022/11/04 14:51:30;;;;;;;32.38;21.50;;;;;;;13.94;68.82;99182.05;1939480;91;32245;-65
2022/11/04 14:54:33;;;;;;;33.73;21.85;;;;;;;13.90;68.95;99185.48;1937774;91;33534;-65
2022/11/04 14:57:43;;;;;;;38.42;24.70;;;;;;;13.83;68.87;99175.72;1971765;89;29366;-65
2022/11/04 15:00:52;;;;;;;33.42;22.80;;;;;;;13.77;68.76;99185.63;1958751;90;27628;-65